sensor_id;sensor_type;location;lat;lon;timestamp;P1;durP1;ratioP1;P2;durP2;ratioP2
70297;SDS011;57702;44.420;20.298;2022-11-21T00:01:20;4.70;;;4.22;;
70297;SDS011;57702;44.420;20.298;2022-11-21T00:03:46;8.30;;;4.72;;
70297;SDS011;57702;44.420;20.298;2022-11-21T00:06:13;6.75;;;4.38;;
70297;SDS011;57702;44.420;20.298;2022-11-21T00:08:39;5.45;;;3.67;;
70297;SDS011;57702;44.420;20.298;2022-11-21T00:11:05;11.55;;;4.90;;
70297;SDS011;57702;44.420;20.298;2022-11-21T00:13:31;5.55;;;3.60;;
70297;SDS011;57702;44.420;20.298;2022-11-21T00:16:01;7.05;;;4.35;;
70297;SDS011;57702;44.420;20.298;2022-11-21T00:18:28;6.65;;;3.92;;
70297;SDS011;57702;44.420;20.298;2022-11-21T00:20:54;11.73;;;4.13;;
70297;SDS011;57702;44.420;20.298;2022-11-21T00:23:20;17.65;;;3.97;;
70297;SDS011;57702;44.420;20.298;2022-11-21T00:25:46;6.63;;;4.15;;
70297;SDS011;57702;44.420;20.298;2022-11-21T00:28:12;7.50;;;4.20;;
70297;SDS011;57702;44.420;20.298;2022-11-21T00:30:38;6.13;;;4.40;;
70297;SDS011;57702;44.420;20.298;2022-11-21T00:33:04;6.47;;;4.25;;
70297;SDS011;57702;44.420;20.298;2022-11-21T00:35:30;9.60;;;4.88;;
70297;SDS011;57702;44.420;20.298;2022-11-21T00:37:56;2.63;;;2.20;;
70297;SDS011;57702;44.420;20.298;2022-11-21T00:40:23;7.75;;;4.85;;
70297;SDS011;57702;44.420;20.298;2022-11-21T00:42:49;6.95;;;3.80;;
70297;SDS011;57702;44.420;20.298;2022-11-21T00:45:15;1.60;;;1.45;;
70297;SDS011;57702;44.420;20.298;2022-11-21T00:47:41;7.28;;;3.80;;
70297;SDS011;57702;44.420;20.298;2022-11-21T00:50:08;12.95;;;3.10;;
70297;SDS011;57702;44.420;20.298;2022-11-21T00:52:34;11.18;;;3.45;;
70297;SDS011;57702;44.420;20.298;2022-11-21T00:55:00;5.53;;;3.22;;
70297;SDS011;57702;44.420;20.298;2022-11-21T00:57:26;6.25;;;5.65;;
70297;SDS011;57702;44.420;20.298;2022-11-21T00:59:52;5.68;;;3.92;;
70297;SDS011;57702;44.420;20.298;2022-11-21T01:02:19;2.88;;;1.90;;
70297;SDS011;57702;44.420;20.298;2022-11-21T01:04:45;5.10;;;1.63;;
70297;SDS011;57702;44.420;20.298;2022-11-21T01:07:11;4.90;;;2.75;;
70297;SDS011;57702;44.420;20.298;2022-11-21T01:09:38;3.05;;;2.83;;
70297;SDS011;57702;44.420;20.298;2022-11-21T01:12:04;11.25;;;4.72;;
70297;SDS011;57702;44.420;20.298;2022-11-21T01:14:30;5.53;;;3.95;;
70297;SDS011;57702;44.420;20.298;2022-11-21T01:16:56;3.40;;;2.90;;
70297;SDS011;57702;44.420;20.298;2022-11-21T01:19:23;2.05;;;1.95;;
70297;SDS011;57702;44.420;20.298;2022-11-21T01:21:49;2.63;;;1.73;;
70297;SDS011;57702;44.420;20.298;2022-11-21T01:24:15;2.55;;;2.25;;
70297;SDS011;57702;44.420;20.298;2022-11-21T01:26:41;9.38;;;3.45;;
70297;SDS011;57702;44.420;20.298;2022-11-21T01:29:07;1.58;;;1.48;;
70297;SDS011;57702;44.420;20.298;2022-11-21T01:31:33;4.40;;;2.15;;
70297;SDS011;57702;44.420;20.298;2022-11-21T01:34:00;3.35;;;2.05;;
70297;SDS011;57702;44.420;20.298;2022-11-21T01:36:30;2.70;;;1.80;;
70297;SDS011;57702;44.420;20.298;2022-11-21T01:38:57;2.85;;;2.65;;
70297;SDS011;57702;44.420;20.298;2022-11-21T01:41:25;5.85;;;2.20;;
70297;SDS011;57702;44.420;20.298;2022-11-21T01:43:54;1.95;;;1.52;;
70297;SDS011;57702;44.420;20.298;2022-11-21T01:46:20;1.75;;;1.65;;
70297;SDS011;57702;44.420;20.298;2022-11-21T01:53:48;2.47;;;1.30;;
70297;SDS011;57702;44.420;20.298;2022-11-21T01:56:15;3.75;;;1.70;;
70297;SDS011;57702;44.420;20.298;2022-11-21T01:58:42;7.32;;;3.92;;
70297;SDS011;57702;44.420;20.298;2022-11-21T02:01:09;12.30;;;3.20;;
70297;SDS011;57702;44.420;20.298;2022-11-21T02:03:36;5.47;;;2.88;;
70297;SDS011;57702;44.420;20.298;2022-11-21T02:06:03;12.60;;;3.13;;
70297;SDS011;57702;44.420;20.298;2022-11-21T02:08:30;3.40;;;1.27;;
70297;SDS011;57702;44.420;20.298;2022-11-21T02:11:05;5.70;;;2.45;;
70297;SDS011;57702;44.420;20.298;2022-11-21T02:13:34;4.75;;;3.17;;
70297;SDS011;57702;44.420;20.298;2022-11-21T02:16:00;2.60;;;1.52;;
70297;SDS011;57702;44.420;20.298;2022-11-21T02:18:27;3.47;;;2.33;;
70297;SDS011;57702;44.420;20.298;2022-11-21T02:20:56;2.58;;;1.70;;
70297;SDS011;57702;44.420;20.298;2022-11-21T02:23:28;1.20;;;1.10;;
70297;SDS011;57702;44.420;20.298;2022-11-21T02:25:56;4.40;;;1.90;;
70297;SDS011;57702;44.420;20.298;2022-11-21T02:28:23;15.18;;;3.47;;
70297;SDS011;57702;44.420;20.298;2022-11-21T02:30:51;4.82;;;3.50;;
70297;SDS011;57702;44.420;20.298;2022-11-21T02:33:17;5.82;;;3.10;;
70297;SDS011;57702;44.420;20.298;2022-11-21T02:35:43;2.03;;;1.80;;
70297;SDS011;57702;44.420;20.298;2022-11-21T02:38:16;4.07;;;1.27;;
70297;SDS011;57702;44.420;20.298;2022-11-21T02:41:02;2.08;;;1.77;;
70297;SDS011;57702;44.420;20.298;2022-11-21T02:43:32;2.33;;;1.58;;
70297;SDS011;57702;44.420;20.298;2022-11-21T02:46:01;11.35;;;4.97;;
70297;SDS011;57702;44.420;20.298;2022-11-21T02:48:27;7.65;;;3.42;;
70297;SDS011;57702;44.420;20.298;2022-11-21T02:50:53;11.80;;;4.50;;
70297;SDS011;57702;44.420;20.298;2022-11-21T02:53:19;24.95;;;3.58;;
70297;SDS011;57702;44.420;20.298;2022-11-21T02:55:45;4.43;;;2.85;;
70297;SDS011;57702;44.420;20.298;2022-11-21T02:58:12;4.30;;;2.15;;
70297;SDS011;57702;44.420;20.298;2022-11-21T03:00:39;10.57;;;5.00;;
70297;SDS011;57702;44.420;20.298;2022-11-21T03:03:05;9.35;;;2.83;;
70297;SDS011;57702;44.420;20.298;2022-11-21T03:05:31;29.00;;;5.70;;
70297;SDS011;57702;44.420;20.298;2022-11-21T03:07:58;9.43;;;5.13;;
70297;SDS011;57702;44.420;20.298;2022-11-21T03:10:24;9.77;;;3.60;;
70297;SDS011;57702;44.420;20.298;2022-11-21T03:12:50;14.07;;;3.63;;
70297;SDS011;57702;44.420;20.298;2022-11-21T03:15:25;29.25;;;4.18;;
70297;SDS011;57702;44.420;20.298;2022-11-21T03:17:52;4.95;;;2.45;;
70297;SDS011;57702;44.420;20.298;2022-11-21T03:20:18;9.23;;;2.67;;
70297;SDS011;57702;44.420;20.298;2022-11-21T03:22:44;8.02;;;2.58;;
70297;SDS011;57702;44.420;20.298;2022-11-21T03:25:11;2.45;;;1.65;;
70297;SDS011;57702;44.420;20.298;2022-11-21T03:27:37;3.10;;;2.28;;
70297;SDS011;57702;44.420;20.298;2022-11-21T03:30:03;13.48;;;4.85;;
70297;SDS011;57702;44.420;20.298;2022-11-21T03:32:29;4.55;;;2.00;;
70297;SDS011;57702;44.420;20.298;2022-11-21T03:34:55;11.10;;;4.45;;
70297;SDS011;57702;44.420;20.298;2022-11-21T03:37:21;2.55;;;2.35;;
70297;SDS011;57702;44.420;20.298;2022-11-21T03:39:47;3.85;;;3.25;;
70297;SDS011;57702;44.420;20.298;2022-11-21T03:42:13;3.25;;;3.00;;
70297;SDS011;57702;44.420;20.298;2022-11-21T03:44:40;3.25;;;2.85;;
70297;SDS011;57702;44.420;20.298;2022-11-21T03:47:06;7.32;;;3.33;;
70297;SDS011;57702;44.420;20.298;2022-11-21T03:49:32;4.53;;;1.92;;
70297;SDS011;57702;44.420;20.298;2022-11-21T03:51:58;4.78;;;3.47;;
70297;SDS011;57702;44.420;20.298;2022-11-21T03:54:25;2.00;;;1.85;;
70297;SDS011;57702;44.420;20.298;2022-11-21T03:56:51;2.47;;;2.05;;
70297;SDS011;57702;44.420;20.298;2022-11-21T03:59:17;3.70;;;2.72;;
70297;SDS011;57702;44.420;20.298;2022-11-21T04:01:43;4.47;;;2.65;;
70297;SDS011;57702;44.420;20.298;2022-11-21T04:04:09;3.80;;;3.50;;
70297;SDS011;57702;44.420;20.298;2022-11-21T04:06:35;7.88;;;2.35;;
70297;SDS011;57702;44.420;20.298;2022-11-21T04:09:01;5.22;;;2.53;;
70297;SDS011;57702;44.420;20.298;2022-11-21T04:11:27;4.47;;;3.30;;
70297;SDS011;57702;44.420;20.298;2022-11-21T04:13:54;2.08;;;1.95;;
70297;SDS011;57702;44.420;20.298;2022-11-21T04:16:20;3.75;;;3.42;;
70297;SDS011;57702;44.420;20.298;2022-11-21T04:18:46;1.85;;;1.85;;
70297;SDS011;57702;44.420;20.298;2022-11-21T04:21:12;3.80;;;2.40;;
70297;SDS011;57702;44.420;20.298;2022-11-21T04:23:38;5.18;;;2.70;;
70297;SDS011;57702;44.420;20.298;2022-11-21T04:26:04;4.45;;;2.05;;
70297;SDS011;57702;44.420;20.298;2022-11-21T04:28:31;3.50;;;3.20;;
70297;SDS011;57702;44.420;20.298;2022-11-21T04:31:03;3.03;;;2.72;;
70297;SDS011;57702;44.420;20.298;2022-11-21T04:33:30;11.52;;;3.33;;
70297;SDS011;57702;44.420;20.298;2022-11-21T04:35:56;3.85;;;2.65;;
70297;SDS011;57702;44.420;20.298;2022-11-21T04:38:22;6.38;;;1.85;;
70297;SDS011;57702;44.420;20.298;2022-11-21T04:40:48;5.10;;;3.55;;
70297;SDS011;57702;44.420;20.298;2022-11-21T04:43:14;2.80;;;2.42;;
70297;SDS011;57702;44.420;20.298;2022-11-21T04:45:40;4.93;;;3.03;;
70297;SDS011;57702;44.420;20.298;2022-11-21T04:48:08;8.15;;;4.57;;
70297;SDS011;57702;44.420;20.298;2022-11-21T04:50:35;2.15;;;1.95;;
70297;SDS011;57702;44.420;20.298;2022-11-21T04:53:01;4.20;;;2.85;;
70297;SDS011;57702;44.420;20.298;2022-11-21T04:55:28;2.40;;;1.52;;
70297;SDS011;57702;44.420;20.298;2022-11-21T04:57:54;3.10;;;1.75;;
70297;SDS011;57702;44.420;20.298;2022-11-21T05:00:20;5.72;;;3.40;;
70297;SDS011;57702;44.420;20.298;2022-11-21T05:02:46;3.10;;;2.75;;
70297;SDS011;57702;44.420;20.298;2022-11-21T05:05:13;6.78;;;4.38;;
70297;SDS011;57702;44.420;20.298;2022-11-21T05:07:39;16.48;;;4.65;;
70297;SDS011;57702;44.420;20.298;2022-11-21T05:10:05;13.85;;;6.28;;
70297;SDS011;57702;44.420;20.298;2022-11-21T05:12:32;3.70;;;2.95;;
70297;SDS011;57702;44.420;20.298;2022-11-21T05:15:17;5.68;;;3.42;;
70297;SDS011;57702;44.420;20.298;2022-11-21T05:17:43;10.05;;;5.72;;
70297;SDS011;57702;44.420;20.298;2022-11-21T05:20:10;6.85;;;3.53;;
70297;SDS011;57702;44.420;20.298;2022-11-21T05:22:36;8.25;;;2.75;;
70297;SDS011;57702;44.420;20.298;2022-11-21T05:25:02;5.38;;;2.20;;
70297;SDS011;57702;44.420;20.298;2022-11-21T05:27:29;8.05;;;3.63;;
70297;SDS011;57702;44.420;20.298;2022-11-21T05:29:55;5.72;;;4.10;;
70297;SDS011;57702;44.420;20.298;2022-11-21T05:32:21;9.10;;;3.45;;
70297;SDS011;57702;44.420;20.298;2022-11-21T05:34:47;4.28;;;2.97;;
70297;SDS011;57702;44.420;20.298;2022-11-21T05:37:13;7.10;;;4.00;;
70297;SDS011;57702;44.420;20.298;2022-11-21T05:39:39;4.38;;;3.72;;
70297;SDS011;57702;44.420;20.298;2022-11-21T05:42:05;4.10;;;3.63;;
70297;SDS011;57702;44.420;20.298;2022-11-21T05:44:32;6.80;;;3.33;;
70297;SDS011;57702;44.420;20.298;2022-11-21T05:46:58;7.20;;;4.63;;
70297;SDS011;57702;44.420;20.298;2022-11-21T05:49:24;11.25;;;4.82;;
70297;SDS011;57702;44.420;20.298;2022-11-21T05:51:50;6.43;;;4.75;;
70297;SDS011;57702;44.420;20.298;2022-11-21T05:54:17;3.13;;;2.05;;
70297;SDS011;57702;44.420;20.298;2022-11-21T05:56:43;9.00;;;4.35;;
70297;SDS011;57702;44.420;20.298;2022-11-21T05:59:09;3.33;;;2.58;;
70297;SDS011;57702;44.420;20.298;2022-11-21T06:01:36;2.60;;;2.22;;
70297;SDS011;57702;44.420;20.298;2022-11-21T06:04:20;9.10;;;4.47;;
70297;SDS011;57702;44.420;20.298;2022-11-21T06:06:47;4.18;;;3.53;;
70297;SDS011;57702;44.420;20.298;2022-11-21T06:09:13;11.13;;;4.07;;
70297;SDS011;57702;44.420;20.298;2022-11-21T06:11:39;7.70;;;4.57;;
70297;SDS011;57702;44.420;20.298;2022-11-21T06:14:05;12.63;;;4.88;;
70297;SDS011;57702;44.420;20.298;2022-11-21T06:16:31;7.75;;;3.30;;
70297;SDS011;57702;44.420;20.298;2022-11-21T06:18:57;3.83;;;3.53;;
70297;SDS011;57702;44.420;20.298;2022-11-21T06:21:24;5.55;;;2.70;;
70297;SDS011;57702;44.420;20.298;2022-11-21T06:23:51;10.27;;;4.20;;
70297;SDS011;57702;44.420;20.298;2022-11-21T06:26:18;9.82;;;4.03;;
70297;SDS011;57702;44.420;20.298;2022-11-21T06:28:45;4.47;;;4.07;;
70297;SDS011;57702;44.420;20.298;2022-11-21T06:31:13;3.28;;;2.97;;
70297;SDS011;57702;44.420;20.298;2022-11-21T06:33:40;3.70;;;3.33;;
70297;SDS011;57702;44.420;20.298;2022-11-21T06:36:07;7.40;;;4.07;;
70297;SDS011;57702;44.420;20.298;2022-11-21T06:38:34;10.05;;;5.00;;
70297;SDS011;57702;44.420;20.298;2022-11-21T06:41:04;6.15;;;3.13;;
70297;SDS011;57702;44.420;20.298;2022-11-21T06:43:30;6.75;;;3.05;;
70297;SDS011;57702;44.420;20.298;2022-11-21T06:45:57;10.10;;;3.55;;
70297;SDS011;57702;44.420;20.298;2022-11-21T06:48:23;8.63;;;4.88;;
70297;SDS011;57702;44.420;20.298;2022-11-21T06:50:49;7.60;;;4.18;;
70297;SDS011;57702;44.420;20.298;2022-11-21T06:53:15;9.88;;;4.55;;
70297;SDS011;57702;44.420;20.298;2022-11-21T06:55:41;3.42;;;3.17;;
70297;SDS011;57702;44.420;20.298;2022-11-21T06:58:08;11.70;;;5.63;;
70297;SDS011;57702;44.420;20.298;2022-11-21T07:00:34;8.32;;;4.55;;
70297;SDS011;57702;44.420;20.298;2022-11-21T07:03:00;14.88;;;4.47;;
70297;SDS011;57702;44.420;20.298;2022-11-21T07:05:27;4.82;;;3.50;;
70297;SDS011;57702;44.420;20.298;2022-11-21T07:07:57;4.72;;;3.88;;
70297;SDS011;57702;44.420;20.298;2022-11-21T07:10:23;9.57;;;4.50;;
70297;SDS011;57702;44.420;20.298;2022-11-21T07:12:49;11.10;;;2.75;;
70297;SDS011;57702;44.420;20.298;2022-11-21T07:15:34;7.07;;;4.20;;
70297;SDS011;57702;44.420;20.298;2022-11-21T07:18:00;10.23;;;4.47;;
70297;SDS011;57702;44.420;20.298;2022-11-21T07:20:26;3.47;;;3.17;;
70297;SDS011;57702;44.420;20.298;2022-11-21T07:22:53;8.50;;;3.95;;
70297;SDS011;57702;44.420;20.298;2022-11-21T07:25:20;6.70;;;3.90;;
70297;SDS011;57702;44.420;20.298;2022-11-21T07:27:46;9.18;;;3.47;;
70297;SDS011;57702;44.420;20.298;2022-11-21T07:30:12;6.28;;;2.72;;
70297;SDS011;57702;44.420;20.298;2022-11-21T07:32:39;5.03;;;3.95;;
70297;SDS011;57702;44.420;20.298;2022-11-21T07:35:05;9.40;;;5.03;;
70297;SDS011;57702;44.420;20.298;2022-11-21T07:37:31;4.28;;;3.88;;
70297;SDS011;57702;44.420;20.298;2022-11-21T07:39:58;5.45;;;4.68;;
70297;SDS011;57702;44.420;20.298;2022-11-21T07:42:24;8.05;;;3.83;;
70297;SDS011;57702;44.420;20.298;2022-11-21T07:44:50;12.70;;;4.45;;
70297;SDS011;57702;44.420;20.298;2022-11-21T07:47:16;10.82;;;5.10;;
70297;SDS011;57702;44.420;20.298;2022-11-21T07:49:42;8.10;;;5.20;;
70297;SDS011;57702;44.420;20.298;2022-11-21T07:52:08;10.02;;;4.20;;
70297;SDS011;57702;44.420;20.298;2022-11-21T07:54:34;11.25;;;3.70;;
70297;SDS011;57702;44.420;20.298;2022-11-21T07:57:00;5.18;;;4.18;;
70297;SDS011;57702;44.420;20.298;2022-11-21T07:59:27;4.10;;;3.25;;
70297;SDS011;57702;44.420;20.298;2022-11-21T08:01:53;5.85;;;2.50;;
70297;SDS011;57702;44.420;20.298;2022-11-21T08:04:19;4.32;;;3.42;;
70297;SDS011;57702;44.420;20.298;2022-11-21T08:06:45;3.70;;;2.60;;
70297;SDS011;57702;44.420;20.298;2022-11-21T08:09:11;5.57;;;3.75;;
70297;SDS011;57702;44.420;20.298;2022-11-21T08:11:38;3.63;;;2.83;;
70297;SDS011;57702;44.420;20.298;2022-11-21T08:14:04;4.60;;;4.03;;
70297;SDS011;57702;44.420;20.298;2022-11-21T08:16:30;7.57;;;3.90;;
70297;SDS011;57702;44.420;20.298;2022-11-21T08:18:57;13.98;;;4.53;;
70297;SDS011;57702;44.420;20.298;2022-11-21T08:21:24;6.53;;;4.30;;
70297;SDS011;57702;44.420;20.298;2022-11-21T08:23:51;3.75;;;3.30;;
70297;SDS011;57702;44.420;20.298;2022-11-21T08:26:17;9.27;;;4.22;;
70297;SDS011;57702;44.420;20.298;2022-11-21T08:28:43;13.95;;;4.32;;
70297;SDS011;57702;44.420;20.298;2022-11-21T08:31:09;6.10;;;2.45;;
70297;SDS011;57702;44.420;20.298;2022-11-21T08:33:35;4.38;;;3.08;;
70297;SDS011;57702;44.420;20.298;2022-11-21T08:36:02;18.73;;;10.30;;
70297;SDS011;57702;44.420;20.298;2022-11-21T08:38:29;17.67;;;7.30;;
70297;SDS011;57702;44.420;20.298;2022-11-21T08:40:55;5.75;;;4.97;;
70297;SDS011;57702;44.420;20.298;2022-11-21T08:43:39;13.82;;;4.53;;
70297;SDS011;57702;44.420;20.298;2022-11-21T08:46:06;10.20;;;3.97;;
70297;SDS011;57702;44.420;20.298;2022-11-21T08:48:32;13.13;;;5.13;;
70297;SDS011;57702;44.420;20.298;2022-11-21T08:50:59;2.35;;;2.10;;
70297;SDS011;57702;44.420;20.298;2022-11-21T08:53:25;5.78;;;4.28;;
70297;SDS011;57702;44.420;20.298;2022-11-21T08:55:52;8.27;;;4.97;;
70297;SDS011;57702;44.420;20.298;2022-11-21T08:58:18;21.10;;;10.80;;
70297;SDS011;57702;44.420;20.298;2022-11-21T09:00:45;10.00;;;8.45;;
70297;SDS011;57702;44.420;20.298;2022-11-21T09:03:11;95.90;;;49.03;;
70297;SDS011;57702;44.420;20.298;2022-11-21T09:05:37;17.33;;;10.82;;
70297;SDS011;57702;44.420;20.298;2022-11-21T09:08:03;10.43;;;7.88;;
70297;SDS011;57702;44.420;20.298;2022-11-21T09:10:29;5.85;;;4.53;;
70297;SDS011;57702;44.420;20.298;2022-11-21T09:12:58;11.88;;;4.97;;
70297;SDS011;57702;44.420;20.298;2022-11-21T09:15:24;191.05;;;47.03;;
70297;SDS011;57702;44.420;20.298;2022-11-21T09:18:09;190.25;;;50.00;;
70297;SDS011;57702;44.420;20.298;2022-11-21T09:20:41;52.40;;;25.13;;
70297;SDS011;57702;44.420;20.298;2022-11-21T09:23:09;83.13;;;28.23;;
70297;SDS011;57702;44.420;20.298;2022-11-21T09:25:36;18.17;;;11.52;;
70297;SDS011;57702;44.420;20.298;2022-11-21T09:28:03;37.35;;;12.35;;
70297;SDS011;57702;44.420;20.298;2022-11-21T09:30:29;20.55;;;7.75;;
70297;SDS011;57702;44.420;20.298;2022-11-21T09:32:59;46.78;;;14.88;;
70297;SDS011;57702;44.420;20.298;2022-11-21T09:35:26;13.68;;;6.18;;
70297;SDS011;57702;44.420;20.298;2022-11-21T09:37:52;4.47;;;4.05;;
70297;SDS011;57702;44.420;20.298;2022-11-21T09:40:18;8.73;;;3.78;;
70297;SDS011;57702;44.420;20.298;2022-11-21T09:45:14;4.90;;;3.42;;
70297;SDS011;57702;44.420;20.298;2022-11-21T09:47:49;23.08;;;4.40;;
70297;SDS011;57702;44.420;20.298;2022-11-21T09:50:33;5.72;;;3.85;;
70297;SDS011;57702;44.420;20.298;2022-11-21T09:55:45;7.50;;;2.85;;
70297;SDS011;57702;44.420;20.298;2022-11-21T09:58:29;5.70;;;3.25;;
70297;SDS011;57702;44.420;20.298;2022-11-21T10:00:55;8.52;;;3.60;;
70297;SDS011;57702;44.420;20.298;2022-11-21T10:03:23;5.82;;;4.95;;
70297;SDS011;57702;44.420;20.298;2022-11-21T10:05:51;4.22;;;3.72;;
70297;SDS011;57702;44.420;20.298;2022-11-21T10:10:59;3.65;;;2.75;;
70297;SDS011;57702;44.420;20.298;2022-11-21T10:14:18;3.65;;;2.83;;
70297;SDS011;57702;44.420;20.298;2022-11-21T10:16:19;4.05;;;3.65;;
70297;SDS011;57702;44.420;20.298;2022-11-21T10:24:27;5.10;;;3.35;;
70297;SDS011;57702;44.420;20.298;2022-11-21T10:27:00;3.85;;;3.55;;
70297;SDS011;57702;44.420;20.298;2022-11-21T10:29:31;4.07;;;2.80;;
70297;SDS011;57702;44.420;20.298;2022-11-21T10:34:28;1.70;;;1.60;;
70297;SDS011;57702;44.420;20.298;2022-11-21T10:36:59;4.43;;;2.70;;
70297;SDS011;57702;44.420;20.298;2022-11-21T10:44:26;3.00;;;2.50;;
70297;SDS011;57702;44.420;20.298;2022-11-21T10:47:12;4.93;;;3.47;;
70297;SDS011;57702;44.420;20.298;2022-11-21T10:49:39;2.92;;;2.20;;
70297;SDS011;57702;44.420;20.298;2022-11-21T10:52:06;7.03;;;2.38;;
70297;SDS011;57702;44.420;20.298;2022-11-21T10:55:10;4.53;;;2.13;;
70297;SDS011;57702;44.420;20.298;2022-11-21T11:00:28;2.67;;;2.00;;
70297;SDS011;57702;44.420;20.298;2022-11-21T11:07:59;3.03;;;2.75;;
70297;SDS011;57702;44.420;20.298;2022-11-21T11:10:25;5.97;;;2.33;;
70297;SDS011;57702;44.420;20.298;2022-11-21T11:12:51;2.22;;;2.05;;
70297;SDS011;57702;44.420;20.298;2022-11-21T11:15:37;2.72;;;2.03;;
70297;SDS011;57702;44.420;20.298;2022-11-21T11:18:04;4.50;;;2.35;;
70297;SDS011;57702;44.420;20.298;2022-11-21T11:20:35;4.38;;;2.80;;
70297;SDS011;57702;44.420;20.298;2022-11-21T11:25:53;9.35;;;2.55;;
70297;SDS011;57702;44.420;20.298;2022-11-21T11:28:20;2.97;;;1.55;;
70297;SDS011;57702;44.420;20.298;2022-11-21T11:30:48;1.50;;;1.40;;
70297;SDS011;57702;44.420;20.298;2022-11-21T11:33:31;0.80;;;0.80;;
70297;SDS011;57702;44.420;20.298;2022-11-21T11:36:08;1.10;;;1.00;;
70297;SDS011;57702;44.420;20.298;2022-11-21T11:38:35;15.77;;;2.30;;
70297;SDS011;57702;44.420;20.298;2022-11-21T11:41:03;2.58;;;1.77;;
70297;SDS011;57702;44.420;20.298;2022-11-21T11:49:17;1.88;;;1.58;;
70297;SDS011;57702;44.420;20.298;2022-11-21T11:51:46;1.25;;;1.25;;
70297;SDS011;57702;44.420;20.298;2022-11-21T11:54:14;9.57;;;1.63;;
70297;SDS011;57702;44.420;20.298;2022-11-21T11:56:42;4.07;;;1.95;;
70297;SDS011;57702;44.420;20.298;2022-11-21T12:01:40;6.90;;;1.48;;
70297;SDS011;57702;44.420;20.298;2022-11-21T12:04:23;3.65;;;3.25;;
70297;SDS011;57702;44.420;20.298;2022-11-21T12:07:03;2.63;;;1.90;;
70297;SDS011;57702;44.420;20.298;2022-11-21T12:14:56;13.70;;;2.20;;
70297;SDS011;57702;44.420;20.298;2022-11-21T12:20:23;9.50;;;2.20;;
70297;SDS011;57702;44.420;20.298;2022-11-21T12:22:50;1.75;;;1.65;;
70297;SDS011;57702;44.420;20.298;2022-11-21T12:25:18;6.93;;;2.60;;
70297;SDS011;57702;44.420;20.298;2022-11-21T12:27:46;1.42;;;1.33;;
70297;SDS011;57702;44.420;20.298;2022-11-21T12:33:05;2.33;;;1.77;;
70297;SDS011;57702;44.420;20.298;2022-11-21T12:46:27;1.00;;;1.00;;
70297;SDS011;57702;44.420;20.298;2022-11-21T12:48:58;1.92;;;1.83;;
70297;SDS011;57702;44.420;20.298;2022-11-21T12:52:20;0.93;;;0.93;;
70297;SDS011;57702;44.420;20.298;2022-11-21T12:57:34;0.73;;;0.73;;
70297;SDS011;57702;44.420;20.298;2022-11-21T13:00:23;1.45;;;1.35;;
70297;SDS011;57702;44.420;20.298;2022-11-21T13:05:32;3.70;;;2.25;;
70297;SDS011;57702;44.420;20.298;2022-11-21T13:08:10;6.70;;;2.42;;
70297;SDS011;57702;44.420;20.298;2022-11-21T13:10:39;2.28;;;1.48;;
70297;SDS011;57702;44.420;20.298;2022-11-21T13:13:12;1.27;;;0.88;;
70297;SDS011;57702;44.420;20.298;2022-11-21T13:15:41;1.42;;;1.10;;
70297;SDS011;57702;44.420;20.298;2022-11-21T13:18:15;3.95;;;2.45;;
70297;SDS011;57702;44.420;20.298;2022-11-21T13:20:46;2.47;;;2.28;;
70297;SDS011;57702;44.420;20.298;2022-11-21T13:25:57;4.43;;;2.70;;
70297;SDS011;57702;44.420;20.298;2022-11-21T13:28:30;1.52;;;1.42;;
70297;SDS011;57702;44.420;20.298;2022-11-21T13:30:56;2.92;;;1.85;;
70297;SDS011;57702;44.420;20.298;2022-11-21T13:36:05;26.73;;;1.95;;
70297;SDS011;57702;44.420;20.298;2022-11-21T13:51:53;1.55;;;1.48;;
70297;SDS011;57702;44.420;20.298;2022-11-21T14:06:54;2.85;;;2.38;;
70297;SDS011;57702;44.420;20.298;2022-11-21T14:09:22;1.70;;;1.60;;
70297;SDS011;57702;44.420;20.298;2022-11-21T14:14:38;3.33;;;3.00;;
70297;SDS011;57702;44.420;20.298;2022-11-21T14:17:08;2.83;;;1.92;;
70297;SDS011;57702;44.420;20.298;2022-11-21T14:19:39;1.45;;;1.30;;
70297;SDS011;57702;44.420;20.298;2022-11-21T14:22:19;1.70;;;1.65;;
70297;SDS011;57702;44.420;20.298;2022-11-21T14:24:50;4.78;;;3.05;;
70297;SDS011;57702;44.420;20.298;2022-11-21T14:27:24;1.40;;;1.15;;
70297;SDS011;57702;44.420;20.298;2022-11-21T14:29:51;1.58;;;1.15;;
70297;SDS011;57702;44.420;20.298;2022-11-21T14:32:17;1.23;;;1.02;;
70297;SDS011;57702;44.420;20.298;2022-11-21T14:34:50;1.85;;;1.73;;
70297;SDS011;57702;44.420;20.298;2022-11-21T14:37:16;3.05;;;1.08;;
70297;SDS011;57702;44.420;20.298;2022-11-21T14:39:42;1.17;;;0.95;;
70297;SDS011;57702;44.420;20.298;2022-11-21T14:42:11;0.65;;;0.65;;
70297;SDS011;57702;44.420;20.298;2022-11-21T14:44:38;0.88;;;0.88;;
70297;SDS011;57702;44.420;20.298;2022-11-21T14:49:33;3.00;;;1.65;;
70297;SDS011;57702;44.420;20.298;2022-11-21T14:54:45;0.75;;;0.75;;
70297;SDS011;57702;44.420;20.298;2022-11-21T14:57:28;4.13;;;2.60;;
70297;SDS011;57702;44.420;20.298;2022-11-21T14:59:55;12.15;;;2.22;;
70297;SDS011;57702;44.420;20.298;2022-11-21T15:02:22;0.50;;;0.50;;
70297;SDS011;57702;44.420;20.298;2022-11-21T15:04:49;1.05;;;1.05;;
70297;SDS011;57702;44.420;20.298;2022-11-21T15:07:20;4.15;;;1.48;;
70297;SDS011;57702;44.420;20.298;2022-11-21T15:09:47;2.42;;;1.23;;
70297;SDS011;57702;44.420;20.298;2022-11-21T15:12:16;2.80;;;1.67;;
70297;SDS011;57702;44.420;20.298;2022-11-21T15:14:46;1.15;;;1.10;;
70297;SDS011;57702;44.420;20.298;2022-11-21T15:17:14;1.17;;;1.05;;
70297;SDS011;57702;44.420;20.298;2022-11-21T15:19:42;1.60;;;1.17;;
70297;SDS011;57702;44.420;20.298;2022-11-21T15:22:14;3.75;;;1.25;;
70297;SDS011;57702;44.420;20.298;2022-11-21T15:24:42;1.45;;;1.45;;
70297;SDS011;57702;44.420;20.298;2022-11-21T15:48:26;2.70;;;2.42;;
70297;SDS011;57702;44.420;20.298;2022-11-21T15:50:52;6.55;;;1.60;;
70297;SDS011;57702;44.420;20.298;2022-11-21T15:53:18;1.80;;;1.65;;
70297;SDS011;57702;44.420;20.298;2022-11-21T15:55:45;3.33;;;2.28;;
70297;SDS011;57702;44.420;20.298;2022-11-21T15:58:11;6.97;;;1.85;;
70297;SDS011;57702;44.420;20.298;2022-11-21T16:00:38;8.02;;;3.67;;
70297;SDS011;57702;44.420;20.298;2022-11-21T16:03:04;27.80;;;4.03;;
70297;SDS011;57702;44.420;20.298;2022-11-21T16:05:30;16.20;;;5.63;;
70297;SDS011;57702;44.420;20.298;2022-11-21T16:07:56;11.18;;;4.22;;
70297;SDS011;57702;44.420;20.298;2022-11-21T16:10:22;34.22;;;5.18;;
70297;SDS011;57702;44.420;20.298;2022-11-21T16:12:48;17.55;;;4.03;;
70297;SDS011;57702;44.420;20.298;2022-11-21T16:15:14;7.18;;;3.50;;
70297;SDS011;57702;44.420;20.298;2022-11-21T16:17:40;15.45;;;5.72;;
70297;SDS011;57702;44.420;20.298;2022-11-21T16:20:09;15.38;;;3.97;;
70297;SDS011;57702;44.420;20.298;2022-11-21T16:22:35;7.93;;;5.00;;
70297;SDS011;57702;44.420;20.298;2022-11-21T16:25:01;7.90;;;3.30;;
70297;SDS011;57702;44.420;20.298;2022-11-21T16:27:27;5.65;;;3.83;;
70297;SDS011;57702;44.420;20.298;2022-11-21T16:29:53;16.67;;;4.05;;
70297;SDS011;57702;44.420;20.298;2022-11-21T16:32:19;11.95;;;5.25;;
70297;SDS011;57702;44.420;20.298;2022-11-21T16:34:45;5.57;;;3.85;;
70297;SDS011;57702;44.420;20.298;2022-11-21T16:37:11;6.85;;;3.67;;
70297;SDS011;57702;44.420;20.298;2022-11-21T16:39:38;25.92;;;6.57;;
70297;SDS011;57702;44.420;20.298;2022-11-21T16:42:04;6.55;;;4.18;;
70297;SDS011;57702;44.420;20.298;2022-11-21T16:44:34;21.40;;;6.43;;
70297;SDS011;57702;44.420;20.298;2022-11-21T16:47:00;13.00;;;6.10;;
70297;SDS011;57702;44.420;20.298;2022-11-21T16:49:26;15.38;;;6.63;;